sensor_id;sensor_type;location;lat;lon;timestamp;temperature;humidity
57282;DHT22;43129;52.628;10.098;2023-05-07T00:01:41;9.80;90.80
57282;DHT22;43129;52.628;10.098;2023-05-07T00:04:06;9.80;90.90
57282;DHT22;43129;52.628;10.098;2023-05-07T00:06:33;9.90;90.70
57282;DHT22;43129;52.628;10.098;2023-05-07T00:08:59;9.90;90.60
57282;DHT22;43129;52.628;10.098;2023-05-07T00:11:26;9.90;90.50
57282;DHT22;43129;52.628;10.098;2023-05-07T00:13:54;9.90;90.50
57282;DHT22;43129;52.628;10.098;2023-05-07T00:16:20;9.80;90.60
57282;DHT22;43129;52.628;10.098;2023-05-07T00:18:46;9.80;90.70
57282;DHT22;43129;52.628;10.098;2023-05-07T00:21:14;9.80;90.80
57282;DHT22;43129;52.628;10.098;2023-05-07T00:23:42;9.70;90.90
57282;DHT22;43129;52.628;10.098;2023-05-07T00:26:07;9.70;91.00
57282;DHT22;43129;52.628;10.098;2023-05-07T00:28:33;9.80;91.00
57282;DHT22;43129;52.628;10.098;2023-05-07T00:30:59;9.70;90.90
57282;DHT22;43129;52.628;10.098;2023-05-07T00:33:24;9.70;91.00
57282;DHT22;43129;52.628;10.098;2023-05-07T00:35:52;9.70;91.00
57282;DHT22;43129;52.628;10.098;2023-05-07T00:38:19;9.70;91.00
57282;DHT22;43129;52.628;10.098;2023-05-07T00:40:45;9.70;91.00
57282;DHT22;43129;52.628;10.098;2023-05-07T00:43:11;9.60;91.30
57282;DHT22;43129;52.628;10.098;2023-05-07T00:45:39;9.60;91.30
57282;DHT22;43129;52.628;10.098;2023-05-07T00:48:08;9.70;91.30
57282;DHT22;43129;52.628;10.098;2023-05-07T00:50:36;9.70;91.20
57282;DHT22;43129;52.628;10.098;2023-05-07T00:53:01;9.60;91.40
57282;DHT22;43129;52.628;10.098;2023-05-07T00:55:28;9.60;91.60
57282;DHT22;43129;52.628;10.098;2023-05-07T00:57:54;9.60;91.90
57282;DHT22;43129;52.628;10.098;2023-05-07T01:00:22;9.60;91.70
57282;DHT22;43129;52.628;10.098;2023-05-07T01:02:50;9.70;91.80
57282;DHT22;43129;52.628;10.098;2023-05-07T01:05:17;9.70;91.70
57282;DHT22;43129;52.628;10.098;2023-05-07T01:07:44;9.70;91.60
57282;DHT22;43129;52.628;10.098;2023-05-07T01:10:11;9.70;91.80
57282;DHT22;43129;52.628;10.098;2023-05-07T01:12:42;9.70;91.90
57282;DHT22;43129;52.628;10.098;2023-05-07T01:15:09;9.60;91.80
57282;DHT22;43129;52.628;10.098;2023-05-07T01:17:36;9.60;92.10
57282;DHT22;43129;52.628;10.098;2023-05-07T01:20:04;9.60;91.70
57282;DHT22;43129;52.628;10.098;2023-05-07T01:22:37;9.60;91.90
57282;DHT22;43129;52.628;10.098;2023-05-07T01:25:07;9.60;91.80
57282;DHT22;43129;52.628;10.098;2023-05-07T01:27:34;9.70;91.80
57282;DHT22;43129;52.628;10.098;2023-05-07T01:30:01;9.70;91.30
57282;DHT22;43129;52.628;10.098;2023-05-07T01:35:09;9.80;91.40
57282;DHT22;43129;52.628;10.098;2023-05-07T01:37:36;9.80;91.20
57282;DHT22;43129;52.628;10.098;2023-05-07T01:40:03;9.80;91.10
57282;DHT22;43129;52.628;10.098;2023-05-07T01:42:30;9.70;91.00
57282;DHT22;43129;52.628;10.098;2023-05-07T01:44:56;9.60;90.70
57282;DHT22;43129;52.628;10.098;2023-05-07T01:47:23;9.70;90.80
57282;DHT22;43129;52.628;10.098;2023-05-07T01:49:52;9.60;90.90
57282;DHT22;43129;52.628;10.098;2023-05-07T01:52:18;9.70;91.00
57282;DHT22;43129;52.628;10.098;2023-05-07T01:54:44;9.70;90.90
57282;DHT22;43129;52.628;10.098;2023-05-07T01:57:09;9.60;90.80
57282;DHT22;43129;52.628;10.098;2023-05-07T01:59:35;9.70;91.00
57282;DHT22;43129;52.628;10.098;2023-05-07T02:02:01;9.80;90.90
57282;DHT22;43129;52.628;10.098;2023-05-07T02:04:29;9.70;90.70
57282;DHT22;43129;52.628;10.098;2023-05-07T02:06:54;9.70;91.20
57282;DHT22;43129;52.628;10.098;2023-05-07T02:09:23;9.70;91.10
57282;DHT22;43129;52.628;10.098;2023-05-07T02:11:49;9.70;91.20
57282;DHT22;43129;52.628;10.098;2023-05-07T02:14:14;9.60;91.10
57282;DHT22;43129;52.628;10.098;2023-05-07T02:16:41;9.60;91.20
57282;DHT22;43129;52.628;10.098;2023-05-07T02:19:07;9.60;91.20
57282;DHT22;43129;52.628;10.098;2023-05-07T02:21:34;9.60;91.30
57282;DHT22;43129;52.628;10.098;2023-05-07T02:24:00;9.50;91.40
57282;DHT22;43129;52.628;10.098;2023-05-07T02:26:25;9.50;91.60
57282;DHT22;43129;52.628;10.098;2023-05-07T02:28:51;9.50;91.60
57282;DHT22;43129;52.628;10.098;2023-05-07T02:31:17;9.60;91.70
57282;DHT22;43129;52.628;10.098;2023-05-07T02:33:43;9.60;91.50
57282;DHT22;43129;52.628;10.098;2023-05-07T02:36:09;9.60;91.60
57282;DHT22;43129;52.628;10.098;2023-05-07T02:38:35;9.50;91.70
57282;DHT22;43129;52.628;10.098;2023-05-07T02:41:01;9.60;91.70
57282;DHT22;43129;52.628;10.098;2023-05-07T02:43:29;9.60;91.90
57282;DHT22;43129;52.628;10.098;2023-05-07T02:46:05;9.50;91.90
57282;DHT22;43129;52.628;10.098;2023-05-07T02:48:31;9.50;92.10
57282;DHT22;43129;52.628;10.098;2023-05-07T02:51:00;9.50;92.10
57282;DHT22;43129;52.628;10.098;2023-05-07T02:53:26;9.50;92.00
57282;DHT22;43129;52.628;10.098;2023-05-07T02:55:59;9.50;92.10
57282;DHT22;43129;52.628;10.098;2023-05-07T02:58:28;9.50;92.20
57282;DHT22;43129;52.628;10.098;2023-05-07T03:00:54;9.50;92.10
57282;DHT22;43129;52.628;10.098;2023-05-07T03:03:24;9.50;92.10
57282;DHT22;43129;52.628;10.098;2023-05-07T03:05:50;9.50;91.90
57282;DHT22;43129;52.628;10.098;2023-05-07T03:08:16;9.50;91.80
57282;DHT22;43129;52.628;10.098;2023-05-07T03:10:42;9.40;91.60
57282;DHT22;43129;52.628;10.098;2023-05-07T03:13:10;9.40;91.60
57282;DHT22;43129;52.628;10.098;2023-05-07T03:15:36;9.40;91.80
57282;DHT22;43129;52.628;10.098;2023-05-07T03:18:01;9.40;91.70
57282;DHT22;43129;52.628;10.098;2023-05-07T03:20:27;9.50;91.40
57282;DHT22;43129;52.628;10.098;2023-05-07T03:22:55;9.50;91.30
57282;DHT22;43129;52.628;10.098;2023-05-07T03:25:21;9.50;91.10
57282;DHT22;43129;52.628;10.098;2023-05-07T03:27:49;9.40;91.10
57282;DHT22;43129;52.628;10.098;2023-05-07T03:30:15;9.40;91.00
57282;DHT22;43129;52.628;10.098;2023-05-07T03:32:40;9.40;91.10
57282;DHT22;43129;52.628;10.098;2023-05-07T03:35:09;9.40;91.10
57282;DHT22;43129;52.628;10.098;2023-05-07T03:37:35;9.50;90.90
57282;DHT22;43129;52.628;10.098;2023-05-07T03:40:00;9.50;90.80
57282;DHT22;43129;52.628;10.098;2023-05-07T03:42:28;9.50;90.60
57282;DHT22;43129;52.628;10.098;2023-05-07T03:44:54;9.50;90.60
57282;DHT22;43129;52.628;10.098;2023-05-07T03:47:20;9.50;90.80
57282;DHT22;43129;52.628;10.098;2023-05-07T03:49:48;9.40;90.20
57282;DHT22;43129;52.628;10.098;2023-05-07T03:52:19;9.40;90.20
57282;DHT22;43129;52.628;10.098;2023-05-07T03:54:51;9.40;90.30
57282;DHT22;43129;52.628;10.098;2023-05-07T03:57:17;9.30;90.40
57282;DHT22;43129;52.628;10.098;2023-05-07T03:59:43;9.40;90.30
57282;DHT22;43129;52.628;10.098;2023-05-07T04:02:08;9.40;90.20
57282;DHT22;43129;52.628;10.098;2023-05-07T04:04:36;9.40;90.20
57282;DHT22;43129;52.628;10.098;2023-05-07T04:07:04;9.40;90.30
57282;DHT22;43129;52.628;10.098;2023-05-07T04:09:32;9.30;90.40
57282;DHT22;43129;52.628;10.098;2023-05-07T04:12:00;9.40;90.40
57282;DHT22;43129;52.628;10.098;2023-05-07T04:14:30;9.40;90.40
57282;DHT22;43129;52.628;10.098;2023-05-07T04:16:58;9.40;90.60
57282;DHT22;43129;52.628;10.098;2023-05-07T04:19:24;9.40;90.50
57282;DHT22;43129;52.628;10.098;2023-05-07T04:21:55;9.40;90.40
57282;DHT22;43129;52.628;10.098;2023-05-07T04:24:23;9.40;90.40
57282;DHT22;43129;52.628;10.098;2023-05-07T04:26:49;9.30;90.50
57282;DHT22;43129;52.628;10.098;2023-05-07T04:29:20;9.30;90.60
57282;DHT22;43129;52.628;10.098;2023-05-07T04:31:50;9.30;90.50
57282;DHT22;43129;52.628;10.098;2023-05-07T04:34:16;9.30;90.70
57282;DHT22;43129;52.628;10.098;2023-05-07T04:36:42;9.40;90.60
57282;DHT22;43129;52.628;10.098;2023-05-07T04:39:09;9.30;90.60
57282;DHT22;43129;52.628;10.098;2023-05-07T04:41:36;9.40;90.80
57282;DHT22;43129;52.628;10.098;2023-05-07T04:44:04;9.40;90.60
57282;DHT22;43129;52.628;10.098;2023-05-07T04:46:31;9.50;90.50
57282;DHT22;43129;52.628;10.098;2023-05-07T04:48:57;9.30;90.50
57282;DHT22;43129;52.628;10.098;2023-05-07T04:51:22;9.40;90.60
57282;DHT22;43129;52.628;10.098;2023-05-07T04:53:51;9.30;90.70
57282;DHT22;43129;52.628;10.098;2023-05-07T04:56:16;9.30;90.90
57282;DHT22;43129;52.628;10.098;2023-05-07T04:58:45;9.30;90.70
57282;DHT22;43129;52.628;10.098;2023-05-07T05:01:16;9.30;90.70
57282;DHT22;43129;52.628;10.098;2023-05-07T05:03:41;9.50;90.50
57282;DHT22;43129;52.628;10.098;2023-05-07T05:06:07;9.40;90.00
57282;DHT22;43129;52.628;10.098;2023-05-07T05:08:35;9.40;90.00
57282;DHT22;43129;52.628;10.098;2023-05-07T05:11:05;9.50;89.30
57282;DHT22;43129;52.628;10.098;2023-05-07T05:13:33;9.50;88.40
57282;DHT22;43129;52.628;10.098;2023-05-07T05:15:59;9.50;88.20
57282;DHT22;43129;52.628;10.098;2023-05-07T05:18:26;9.60;88.20
57282;DHT22;43129;52.628;10.098;2023-05-07T05:20:52;9.70;87.90
57282;DHT22;43129;52.628;10.098;2023-05-07T05:23:18;9.70;87.80
57282;DHT22;43129;52.628;10.098;2023-05-07T05:25:44;9.60;87.30
57282;DHT22;43129;52.628;10.098;2023-05-07T05:28:12;9.70;87.20
57282;DHT22;43129;52.628;10.098;2023-05-07T05:30:39;9.80;86.30
57282;DHT22;43129;52.628;10.098;2023-05-07T05:33:04;9.80;85.80
57282;DHT22;43129;52.628;10.098;2023-05-07T05:35:30;9.70;85.90
57282;DHT22;43129;52.628;10.098;2023-05-07T05:37:57;9.70;85.90
57282;DHT22;43129;52.628;10.098;2023-05-07T05:40:25;9.70;85.70
57282;DHT22;43129;52.628;10.098;2023-05-07T05:42:50;9.70;85.60
57282;DHT22;43129;52.628;10.098;2023-05-07T05:45:18;9.60;85.80
57282;DHT22;43129;52.628;10.098;2023-05-07T05:47:46;9.70;85.80
57282;DHT22;43129;52.628;10.098;2023-05-07T05:50:12;9.70;85.60
57282;DHT22;43129;52.628;10.098;2023-05-07T05:52:37;9.60;85.60
57282;DHT22;43129;52.628;10.098;2023-05-07T05:55:04;9.60;86.10
57282;DHT22;43129;52.628;10.098;2023-05-07T05:57:30;9.60;85.70
57282;DHT22;43129;52.628;10.098;2023-05-07T05:59:56;9.50;86.50
57282;DHT22;43129;52.628;10.098;2023-05-07T06:02:21;9.50;87.00
57282;DHT22;43129;52.628;10.098;2023-05-07T06:04:49;9.60;86.80
57282;DHT22;43129;52.628;10.098;2023-05-07T06:07:20;9.70;86.20
57282;DHT22;43129;52.628;10.098;2023-05-07T06:09:50;9.70;86.20
57282;DHT22;43129;52.628;10.098;2023-05-07T06:12:18;9.70;86.50
57282;DHT22;43129;52.628;10.098;2023-05-07T06:14:44;9.80;86.20
57282;DHT22;43129;52.628;10.098;2023-05-07T06:17:09;9.70;85.90
57282;DHT22;43129;52.628;10.098;2023-05-07T06:19:35;9.80;85.90
57282;DHT22;43129;52.628;10.098;2023-05-07T06:22:03;9.80;86.10
57282;DHT22;43129;52.628;10.098;2023-05-07T06:24:28;9.80;85.40
57282;DHT22;43129;52.628;10.098;2023-05-07T06:26:57;9.90;85.20
57282;DHT22;43129;52.628;10.098;2023-05-07T06:29:23;9.90;85.00
57282;DHT22;43129;52.628;10.098;2023-05-07T06:31:55;10.00;85.10
57282;DHT22;43129;52.628;10.098;2023-05-07T06:34:21;9.90;84.50
57282;DHT22;43129;52.628;10.098;2023-05-07T06:36:49;10.00;84.60
57282;DHT22;43129;52.628;10.098;2023-05-07T06:39:17;10.00;84.80
57282;DHT22;43129;52.628;10.098;2023-05-07T06:41:42;10.00;84.40
57282;DHT22;43129;52.628;10.098;2023-05-07T06:44:10;10.10;84.70
57282;DHT22;43129;52.628;10.098;2023-05-07T06:46:36;10.10;84.20
57282;DHT22;43129;52.628;10.098;2023-05-07T06:49:04;10.20;84.40
57282;DHT22;43129;52.628;10.098;2023-05-07T06:51:34;10.20;84.20
57282;DHT22;43129;52.628;10.098;2023-05-07T06:54:02;10.30;84.10
57282;DHT22;43129;52.628;10.098;2023-05-07T06:56:30;10.20;84.00
57282;DHT22;43129;52.628;10.098;2023-05-07T06:58:59;10.30;84.20
57282;DHT22;43129;52.628;10.098;2023-05-07T07:01:25;10.30;84.00
57282;DHT22;43129;52.628;10.098;2023-05-07T07:03:50;10.40;83.40
57282;DHT22;43129;52.628;10.098;2023-05-07T07:06:16;10.40;83.10
57282;DHT22;43129;52.628;10.098;2023-05-07T07:08:44;10.20;83.50
57282;DHT22;43129;52.628;10.098;2023-05-07T07:11:12;10.30;84.00
57282;DHT22;43129;52.628;10.098;2023-05-07T07:13:41;10.40;84.00
57282;DHT22;43129;52.628;10.098;2023-05-07T07:16:09;10.50;83.20
57282;DHT22;43129;52.628;10.098;2023-05-07T07:18:34;10.60;83.30
57282;DHT22;43129;52.628;10.098;2023-05-07T07:21:01;10.40;83.30
57282;DHT22;43129;52.628;10.098;2023-05-07T07:23:29;10.50;83.20
57282;DHT22;43129;52.628;10.098;2023-05-07T07:25:55;10.50;83.60
57282;DHT22;43129;52.628;10.098;2023-05-07T07:28:21;10.50;83.40
57282;DHT22;43129;52.628;10.098;2023-05-07T07:30:47;10.60;82.70
57282;DHT22;43129;52.628;10.098;2023-05-07T07:33:15;10.60;82.70
57282;DHT22;43129;52.628;10.098;2023-05-07T07:35:42;10.50;83.30
57282;DHT22;43129;52.628;10.098;2023-05-07T07:38:07;10.40;83.60
57282;DHT22;43129;52.628;10.098;2023-05-07T07:40:36;10.40;83.70
57282;DHT22;43129;52.628;10.098;2023-05-07T07:43:05;10.40;83.80
57282;DHT22;43129;52.628;10.098;2023-05-07T07:45:34;10.50;83.80
57282;DHT22;43129;52.628;10.098;2023-05-07T07:48:00;10.40;84.10
57282;DHT22;43129;52.628;10.098;2023-05-07T07:50:26;10.30;84.10
57282;DHT22;43129;52.628;10.098;2023-05-07T07:52:51;10.20;84.50
57282;DHT22;43129;52.628;10.098;2023-05-07T07:55:20;10.20;84.90
57282;DHT22;43129;52.628;10.098;2023-05-07T07:57:50;10.30;84.20
57282;DHT22;43129;52.628;10.098;2023-05-07T08:00:20;10.30;84.20
57282;DHT22;43129;52.628;10.098;2023-05-07T08:02:46;10.30;84.20
57282;DHT22;43129;52.628;10.098;2023-05-07T08:05:14;10.30;84.00
57282;DHT22;43129;52.628;10.098;2023-05-07T08:07:40;10.40;84.20
57282;DHT22;43129;52.628;10.098;2023-05-07T08:10:09;10.40;84.00
57282;DHT22;43129;52.628;10.098;2023-05-07T08:12:34;10.40;83.40
57282;DHT22;43129;52.628;10.098;2023-05-07T08:15:00;10.50;83.20
57282;DHT22;43129;52.628;10.098;2023-05-07T08:17:26;10.40;83.70
57282;DHT22;43129;52.628;10.098;2023-05-07T08:19:51;10.40;83.50
57282;DHT22;43129;52.628;10.098;2023-05-07T08:22:21;10.50;83.40
57282;DHT22;43129;52.628;10.098;2023-05-07T08:24:48;10.70;83.20
57282;DHT22;43129;52.628;10.098;2023-05-07T08:27:16;10.90;81.90
57282;DHT22;43129;52.628;10.098;2023-05-07T08:29:41;11.00;81.30
57282;DHT22;43129;52.628;10.098;2023-05-07T08:32:07;10.90;80.80
57282;DHT22;43129;52.628;10.098;2023-05-07T08:34:33;10.90;80.80
57282;DHT22;43129;52.628;10.098;2023-05-07T08:37:00;10.80;80.90
57282;DHT22;43129;52.628;10.098;2023-05-07T08:39:31;10.80;80.90
57282;DHT22;43129;52.628;10.098;2023-05-07T08:42:02;10.90;81.00
57282;DHT22;43129;52.628;10.098;2023-05-07T08:44:32;10.80;80.30
57282;DHT22;43129;52.628;10.098;2023-05-07T08:47:01;10.80;80.50
57282;DHT22;43129;52.628;10.098;2023-05-07T08:49:28;10.80;80.10
57282;DHT22;43129;52.628;10.098;2023-05-07T08:51:54;10.90;79.90
57282;DHT22;43129;52.628;10.098;2023-05-07T08:54:23;11.10;79.20
57282;DHT22;43129;52.628;10.098;2023-05-07T08:56:52;11.30;78.50
57282;DHT22;43129;52.628;10.098;2023-05-07T08:59:18;11.20;78.20
57282;DHT22;43129;52.628;10.098;2023-05-07T09:01:43;11.30;78.30
57282;DHT22;43129;52.628;10.098;2023-05-07T09:04:11;11.20;78.10
57282;DHT22;43129;52.628;10.098;2023-05-07T09:06:43;11.30;78.40
57282;DHT22;43129;52.628;10.098;2023-05-07T09:09:14;11.40;77.70
57282;DHT22;43129;52.628;10.098;2023-05-07T09:11:42;11.50;77.60
57282;DHT22;43129;52.628;10.098;2023-05-07T09:14:11;11.70;76.60
57282;DHT22;43129;52.628;10.098;2023-05-07T09:16:41;11.60;76.20
57282;DHT22;43129;52.628;10.098;2023-05-07T09:19:12;11.40;77.00
57282;DHT22;43129;52.628;10.098;2023-05-07T09:21:42;11.70;77.00
57282;DHT22;43129;52.628;10.098;2023-05-07T09:24:10;12.10;75.80
57282;DHT22;43129;52.628;10.098;2023-05-07T09:26:38;12.10;74.70
57282;DHT22;43129;52.628;10.098;2023-05-07T09:29:03;12.20;74.00
57282;DHT22;43129;52.628;10.098;2023-05-07T09:31:29;12.30;73.80
57282;DHT22;43129;52.628;10.098;2023-05-07T09:33:55;12.10;73.70
57282;DHT22;43129;52.628;10.098;2023-05-07T09:36:24;12.10;74.70
57282;DHT22;43129;52.628;10.098;2023-05-07T09:38:49;12.40;74.30
57282;DHT22;43129;52.628;10.098;2023-05-07T09:41:18;12.50;73.60
57282;DHT22;43129;52.628;10.098;2023-05-07T09:43:44;12.40;73.80
57282;DHT22;43129;52.628;10.098;2023-05-07T09:46:16;12.20;74.30
57282;DHT22;43129;52.628;10.098;2023-05-07T09:48:44;12.00;74.90
57282;DHT22;43129;52.628;10.098;2023-05-07T09:53:45;12.70;72.80
57282;DHT22;43129;52.628;10.098;2023-05-07T09:56:14;12.90;72.20
57282;DHT22;43129;52.628;10.098;2023-05-07T09:58:41;13.00;71.30
57282;DHT22;43129;52.628;10.098;2023-05-07T10:01:07;12.70;70.70
57282;DHT22;43129;52.628;10.098;2023-05-07T10:03:33;13.00;71.20
57282;DHT22;43129;52.628;10.098;2023-05-07T10:06:01;13.00;69.90
57282;DHT22;43129;52.628;10.098;2023-05-07T10:08:30;13.00;70.30
57282;DHT22;43129;52.628;10.098;2023-05-07T10:10:56;13.20;70.50
57282;DHT22;43129;52.628;10.098;2023-05-07T10:13:24;13.40;70.10
57282;DHT22;43129;52.628;10.098;2023-05-07T10:15:50;13.60;69.60
57282;DHT22;43129;52.628;10.098;2023-05-07T10:18:20;13.50;67.90
57282;DHT22;43129;52.628;10.098;2023-05-07T10:20:51;13.40;68.60
57282;DHT22;43129;52.628;10.098;2023-05-07T10:23:23;13.30;68.10
57282;DHT22;43129;52.628;10.098;2023-05-07T10:25:52;13.10;69.20
57282;DHT22;43129;52.628;10.098;2023-05-07T10:28:19;13.20;68.90
57282;DHT22;43129;52.628;10.098;2023-05-07T10:33:28;14.10;67.00
57282;DHT22;43129;52.628;10.098;2023-05-07T10:35:59;14.10;65.80
57282;DHT22;43129;52.628;10.098;2023-05-07T10:38:30;13.60;65.90
57282;DHT22;43129;52.628;10.098;2023-05-07T10:40:55;13.80;66.30
57282;DHT22;43129;52.628;10.098;2023-05-07T10:43:21;14.00;66.30
57282;DHT22;43129;52.628;10.098;2023-05-07T10:46:13;14.20;65.70
57282;DHT22;43129;52.628;10.098;2023-05-07T10:51:31;14.60;63.90
57282;DHT22;43129;52.628;10.098;2023-05-07T10:56:41;14.20;64.50
57282;DHT22;43129;52.628;10.098;2023-05-07T11:01:54;14.20;66.10
57282;DHT22;43129;52.628;10.098;2023-05-07T11:04:22;14.50;65.10
57282;DHT22;43129;52.628;10.098;2023-05-07T11:15:15;13.90;66.60
57282;DHT22;43129;52.628;10.098;2023-05-07T11:17:59;13.90;67.10
57282;DHT22;43129;52.628;10.098;2023-05-07T11:20:44;13.90;66.50
57282;DHT22;43129;52.628;10.098;2023-05-07T11:28:37;14.10;67.40
57282;DHT22;43129;52.628;10.098;2023-05-07T11:31:08;14.70;66.70
57282;DHT22;43129;52.628;10.098;2023-05-07T11:33:37;14.90;64.60
57282;DHT22;43129;52.628;10.098;2023-05-07T11:36:04;14.80;64.80
57282;DHT22;43129;52.628;10.098;2023-05-07T11:38:35;14.70;64.30
57282;DHT22;43129;52.628;10.098;2023-05-07T11:41:00;14.50;65.60
57282;DHT22;43129;52.628;10.098;2023-05-07T11:43:27;14.20;66.30
57282;DHT22;43129;52.628;10.098;2023-05-07T11:46:11;14.70;66.00
57282;DHT22;43129;52.628;10.098;2023-05-07T11:48:38;14.70;65.50
57282;DHT22;43129;52.628;10.098;2023-05-07T11:51:05;14.60;64.60
57282;DHT22;43129;52.628;10.098;2023-05-07T11:53:43;14.40;66.00
57282;DHT22;43129;52.628;10.098;2023-05-07T11:56:17;14.40;65.50
57282;DHT22;43129;52.628;10.098;2023-05-07T11:58:44;14.40;66.00
57282;DHT22;43129;52.628;10.098;2023-05-07T12:01:13;14.30;65.00
57282;DHT22;43129;52.628;10.098;2023-05-07T12:03:45;14.00;65.70
57282;DHT22;43129;52.628;10.098;2023-05-07T12:06:12;14.10;65.20
57282;DHT22;43129;52.628;10.098;2023-05-07T12:08:39;14.30;64.90
57282;DHT22;43129;52.628;10.098;2023-05-07T12:11:25;14.70;63.80
57282;DHT22;43129;52.628;10.098;2023-05-07T12:13:54;14.90;63.90
57282;DHT22;43129;52.628;10.098;2023-05-07T12:16:22;15.30;61.60
57282;DHT22;43129;52.628;10.098;2023-05-07T12:18:53;15.30;61.00
57282;DHT22;43129;52.628;10.098;2023-05-07T12:21:26;15.40;61.10
57282;DHT22;43129;52.628;10.098;2023-05-07T12:23:54;14.90;61.50
57282;DHT22;43129;52.628;10.098;2023-05-07T12:26:20;14.70;63.50
57282;DHT22;43129;52.628;10.098;2023-05-07T12:28:46;14.30;65.00
57282;DHT22;43129;52.628;10.098;2023-05-07T12:31:14;14.50;65.10
57282;DHT22;43129;52.628;10.098;2023-05-07T12:33:41;14.80;63.90
57282;DHT22;43129;52.628;10.098;2023-05-07T12:36:07;14.80;63.80
57282;DHT22;43129;52.628;10.098;2023-05-07T12:38:38;15.10;63.40
57282;DHT22;43129;52.628;10.098;2023-05-07T12:41:07;14.90;62.60
57282;DHT22;43129;52.628;10.098;2023-05-07T12:43:33;14.80;62.20
57282;DHT22;43129;52.628;10.098;2023-05-07T12:46:07;14.60;63.60
57282;DHT22;43129;52.628;10.098;2023-05-07T12:48:36;14.70;64.10
57282;DHT22;43129;52.628;10.098;2023-05-07T12:51:02;14.50;63.90
57282;DHT22;43129;52.628;10.098;2023-05-07T12:53:30;14.30;64.50
57282;DHT22;43129;52.628;10.098;2023-05-07T12:55:59;14.40;65.50
57282;DHT22;43129;52.628;10.098;2023-05-07T12:58:27;14.50;64.20
57282;DHT22;43129;52.628;10.098;2023-05-07T13:00:54;14.40;64.60
57282;DHT22;43129;52.628;10.098;2023-05-07T13:03:29;14.40;64.60
57282;DHT22;43129;52.628;10.098;2023-05-07T13:06:06;14.50;64.10
57282;DHT22;43129;52.628;10.098;2023-05-07T13:08:38;14.70;64.80
57282;DHT22;43129;52.628;10.098;2023-05-07T13:11:13;14.70;63.00
57282;DHT22;43129;52.628;10.098;2023-05-07T13:13:41;14.70;63.60
57282;DHT22;43129;52.628;10.098;2023-05-07T13:16:10;15.10;62.80
57282;DHT22;43129;52.628;10.098;2023-05-07T13:18:37;15.30;62.20
57282;DHT22;43129;52.628;10.098;2023-05-07T13:21:03;15.60;61.10
57282;DHT22;43129;52.628;10.098;2023-05-07T13:23:29;15.80;59.70
57282;DHT22;43129;52.628;10.098;2023-05-07T13:25:55;15.70;59.20
57282;DHT22;43129;52.628;10.098;2023-05-07T13:28:24;15.90;59.30
57282;DHT22;43129;52.628;10.098;2023-05-07T13:30:50;16.60;58.30
57282;DHT22;43129;52.628;10.098;2023-05-07T13:33:17;17.50;56.10
57282;DHT22;43129;52.628;10.098;2023-05-07T13:35:48;17.80;53.90
57282;DHT22;43129;52.628;10.098;2023-05-07T13:38:13;17.90;54.40
57282;DHT22;43129;52.628;10.098;2023-05-07T13:40:41;17.90;53.90
57282;DHT22;43129;52.628;10.098;2023-05-07T13:43:07;17.20;55.50
57282;DHT22;43129;52.628;10.098;2023-05-07T13:45:33;16.70;56.80
57282;DHT22;43129;52.628;10.098;2023-05-07T13:47:58;16.50;56.80
57282;DHT22;43129;52.628;10.098;2023-05-07T13:50:24;17.10;56.40
57282;DHT22;43129;52.628;10.098;2023-05-07T13:52:54;18.00;53.80
57282;DHT22;43129;52.628;10.098;2023-05-07T13:55:21;19.00;52.00
57282;DHT22;43129;52.628;10.098;2023-05-07T13:57:59;19.00;51.00
57282;DHT22;43129;52.628;10.098;2023-05-07T14:00:31;18.30;51.70
57282;DHT22;43129;52.628;10.098;2023-05-07T14:02:56;17.80;53.30
57282;DHT22;43129;52.628;10.098;2023-05-07T14:05:25;17.40;54.50
57282;DHT22;43129;52.628;10.098;2023-05-07T14:07:54;17.20;54.80
57282;DHT22;43129;52.628;10.098;2023-05-07T14:10:22;17.20;55.30
57282;DHT22;43129;52.628;10.098;2023-05-07T14:12:47;16.80;56.20
57282;DHT22;43129;52.628;10.098;2023-05-07T14:15:18;16.80;57.70
57282;DHT22;43129;52.628;10.098;2023-05-07T14:17:46;16.80;56.00
57282;DHT22;43129;52.628;10.098;2023-05-07T14:20:12;17.50;55.80
57282;DHT22;43129;52.628;10.098;2023-05-07T14:22:42;18.30;53.60
57282;DHT22;43129;52.628;10.098;2023-05-07T14:25:08;19.00;51.80
57282;DHT22;43129;52.628;10.098;2023-05-07T14:27:40;18.50;51.00
57282;DHT22;43129;52.628;10.098;2023-05-07T14:30:08;18.60;51.30
57282;DHT22;43129;52.628;10.098;2023-05-07T14:32:36;18.20;52.10
57282;DHT22;43129;52.628;10.098;2023-05-07T14:35:04;18.80;51.30
57282;DHT22;43129;52.628;10.098;2023-05-07T14:37:32;19.40;49.70
57282;DHT22;43129;52.628;10.098;2023-05-07T14:40:01;20.00;47.90
57282;DHT22;43129;52.628;10.098;2023-05-07T14:42:26;20.30;46.80
57282;DHT22;43129;52.628;10.098;2023-05-07T14:44:52;19.50;46.80
57282;DHT22;43129;52.628;10.098;2023-05-07T14:47:18;18.90;49.40
57282;DHT22;43129;52.628;10.098;2023-05-07T14:49:43;17.60;52.60
57282;DHT22;43129;52.628;10.098;2023-05-07T14:52:09;17.60;54.40
57282;DHT22;43129;52.628;10.098;2023-05-07T14:54:36;18.10;53.10
57282;DHT22;43129;52.628;10.098;2023-05-07T14:57:08;18.00;53.00
57282;DHT22;43129;52.628;10.098;2023-05-07T14:59:35;17.10;53.80
57282;DHT22;43129;52.628;10.098;2023-05-07T15:02:01;17.20;55.20
57282;DHT22;43129;52.628;10.098;2023-05-07T15:04:27;17.40;53.50
57282;DHT22;43129;52.628;10.098;2023-05-07T15:06:52;17.30;53.10
57282;DHT22;43129;52.628;10.098;2023-05-07T15:09:21;17.60;53.20
57282;DHT22;43129;52.628;10.098;2023-05-07T15:11:47;17.40;53.20
57282;DHT22;43129;52.628;10.098;2023-05-07T15:14:12;17.30;54.10
57282;DHT22;43129;52.628;10.098;2023-05-07T15:16:41;17.50;54.10
57282;DHT22;43129;52.628;10.098;2023-05-07T15:19:08;18.10;53.10
57282;DHT22;43129;52.628;10.098;2023-05-07T15:21:34;18.50;52.00
57282;DHT22;43129;52.628;10.098;2023-05-07T15:24:06;18.00;50.80
57282;DHT22;43129;52.628;10.098;2023-05-07T15:26:32;18.20;51.70
57282;DHT22;43129;52.628;10.098;2023-05-07T15:28:57;18.60;50.80
57282;DHT22;43129;52.628;10.098;2023-05-07T15:31:27;18.90;50.70
57282;DHT22;43129;52.628;10.098;2023-05-07T15:33:55;18.50;50.00
57282;DHT22;43129;52.628;10.098;2023-05-07T15:36:21;19.00;50.10
57282;DHT22;43129;52.628;10.098;2023-05-07T15:38:47;18.70;48.80
57282;DHT22;43129;52.628;10.098;2023-05-07T15:41:13;18.60;50.60
57282;DHT22;43129;52.628;10.098;2023-05-07T15:43:47;18.70;49.40
57282;DHT22;43129;52.628;10.098;2023-05-07T15:46:17;18.80;50.50
57282;DHT22;43129;52.628;10.098;2023-05-07T15:48:43;18.80;50.50
57282;DHT22;43129;52.628;10.098;2023-05-07T15:51:09;18.50;50.90
57282;DHT22;43129;52.628;10.098;2023-05-07T15:53:36;18.80;51.00
57282;DHT22;43129;52.628;10.098;2023-05-07T15:56:06;18.40;50.90